Time;durP1;ratioP1;P1;durP2;ratioP2;P2;SDS_P1;SDS_P2;PMS_P1;PMS_P2;Temp;Humidity;BMP_temperature;BMP_pressure;BME280_temperature;BME280_humidity;BME280_pressure;Samples;Min_cycle;Max_cycle;Signal;HPM_P1;HPM_P2
2020/12/12 00:00:25;;;;;;;0.10;0.10;;;;;;;6.29;100.00;97324.75;5054668;28;20048;-75
2020/12/12 00:03:28;;;;;;;0.10;0.10;;;;;;;6.27;100.00;97321.75;5054511;28;20131;-74
2020/12/12 00:06:32;;;;;;;0.05;0.00;;;;;;;6.22;100.00;97326.03;5054439;28;20056;-75
2020/12/12 00:09:35;;;;;;;0.38;0.38;;;;;;;6.22;100.00;97325.28;5054115;28;20148;-75
2020/12/12 00:12:39;;;;;;;2.40;0.28;;;;;;;6.20;100.00;97336.09;5041602;28;20125;-74
2020/12/12 00:15:42;;;;;;;0.55;0.28;;;;;;;6.20;100.00;97339.59;5034153;28;20453;-75
2020/12/12 00:18:46;;;;;;;0.10;0.00;;;;;;;6.19;100.00;97345.66;5022289;28;20452;-74
2020/12/12 00:21:53;;;;;;;3.25;0.57;;;;;;;6.19;100.00;97345.66;5034686;28;20168;-75
2020/12/12 00:24:56;;;;;;;1.02;0.30;;;;;;;6.18;100.00;97346.88;5034539;28;20057;-75
2020/12/12 00:27:59;;;;;;;1.40;0.43;;;;;;;6.19;100.00;97365.00;5034027;28;20049;-75
2020/12/12 00:31:02;;;;;;;5.00;1.15;;;;;;;6.17;100.00;97356.47;5034032;28;20047;-75
2020/12/12 00:34:05;;;;;;;2.60;1.05;;;;;;;6.15;100.00;97364.50;5033966;28;20076;-74
2020/12/12 00:37:08;;;;;;;2.45;0.82;;;;;;;6.18;100.00;97374.53;5033826;28;20401;-75
2020/12/12 00:40:11;;;;;;;0.22;0.22;;;;;;;6.19;100.00;97368.50;5033670;28;20488;-75
2020/12/12 00:43:14;;;;;;;3.28;1.08;;;;;;;6.19;100.00;97370.50;5033861;28;20432;-75
2020/12/12 00:46:16;;;;;;;0.55;0.40;;;;;;;6.21;100.00;97373.53;5033928;28;20057;-75
2020/12/12 00:49:19;;;;;;;3.25;0.55;;;;;;;6.20;100.00;97372.00;5033416;28;20669;-75
2020/12/12 00:52:22;;;;;;;4.28;1.65;;;;;;;6.21;100.00;97379.81;5033764;28;20107;-75
2020/12/12 00:55:25;;;;;;;1.75;0.25;;;;;;;6.23;100.00;97382.06;5033491;28;20095;-75
2020/12/12 00:58:28;;;;;;;1.98;0.22;;;;;;;6.25;100.00;97383.06;5033614;28;20052;-75
2020/12/12 01:01:31;;;;;;;1.75;0.38;;;;;;;6.26;100.00;97387.31;5033105;28;20071;-75
2020/12/12 01:04:34;;;;;;;0.45;0.30;;;;;;;6.26;100.00;97381.06;5032115;28;20056;-74
2020/12/12 01:07:36;;;;;;;0.32;0.32;;;;;;;6.28;100.00;97384.78;5033272;28;20052;-75
2020/12/12 01:10:40;;;;;;;10.43;1.20;;;;;;;6.28;100.00;97392.34;5033086;28;20111;-75
2020/12/12 01:13:43;;;;;;;8.98;1.23;;;;;;;6.27;100.00;97393.59;5037753;28;20082;-75
2020/12/12 01:16:45;;;;;;;0.95;0.30;;;;;;;6.27;100.00;97394.34;5053317;28;20098;-74
2020/12/12 01:19:48;;;;;;;1.05;0.43;;;;;;;6.28;100.00;97400.66;5052872;28;20535;-74
2020/12/12 01:22:51;;;;;;;0.50;0.50;;;;;;;6.30;100.00;97400.88;5052973;28;20095;-75
2020/12/12 01:25:54;;;;;;;5.45;0.65;;;;;;;6.30;100.00;97403.66;5053083;28;20043;-75
2020/12/12 01:28:59;;;;;;;2.13;0.63;;;;;;;6.32;100.00;97406.66;5052364;28;20052;-75
2020/12/12 01:32:02;;;;;;;3.70;0.88;;;;;;;6.32;100.00;97423.25;5052757;28;20179;-75
2020/12/12 01:35:04;;;;;;;7.57;1.13;;;;;;;6.34;100.00;97415.19;5052752;28;20048;-75
2020/12/12 01:38:07;;;;;;;10.07;2.13;;;;;;;6.34;100.00;97426.25;5052424;28;20492;-76
2020/12/12 01:41:10;;;;;;;13.88;1.00;;;;;;;6.36;100.00;97429.25;5052186;28;20102;-75
2020/12/12 01:44:15;;;;;;;10.10;1.58;;;;;;;6.35;100.00;97427.75;5052502;28;20051;-74
2020/12/12 01:47:18;;;;;;;12.10;2.03;;;;;;;6.38;100.00;97426.75;5052700;28;20111;-75
2020/12/12 01:50:21;;;;;;;7.15;0.77;;;;;;;6.39;100.00;97428.25;5052805;28;20516;-74
2020/12/12 01:53:26;;;;;;;3.45;2.45;;;;;;;6.41;100.00;97437.53;5052399;28;20052;-74
2020/12/12 01:56:30;;;;;;;5.70;1.35;;;;;;;6.42;100.00;97443.81;5052259;28;20405;-74
2020/12/12 01:59:32;;;;;;;2.70;1.33;;;;;;;6.44;100.00;97447.59;5052279;28;20136;-75
2020/12/12 02:02:37;;;;;;;5.47;1.95;;;;;;;6.43;100.00;97446.06;5051970;28;20488;-73
2020/12/12 02:05:45;;;;;;;16.88;2.92;;;;;;;6.45;100.00;97454.63;5051771;28;20423;-75
2020/12/12 02:08:52;;;;;;;2.72;1.15;;;;;;;6.46;100.00;97452.59;5051353;28;20047;-74
2020/12/12 02:11:58;;;;;;;6.68;2.03;;;;;;;6.48;100.00;97459.13;5051694;28;20048;-74
2020/12/12 02:15:01;;;;;;;13.75;2.17;;;;;;;6.53;100.00;97460.38;5051436;28;20075;-75
2020/12/12 02:18:15;;;;;;;3.35;0.98;;;;;;;6.53;100.00;97460.38;5051763;28;20143;-75
2020/12/12 02:21:18;;;;;;;1.88;1.13;;;;;;;6.54;100.00;97462.63;5051603;28;20044;-76
2020/12/12 02:24:22;;;;;;;7.93;1.73;;;;;;;6.55;100.00;97466.91;5051557;28;20464;-75
2020/12/12 02:27:25;;;;;;;19.67;2.97;;;;;;;6.57;100.00;97477.47;5051835;28;20044;-74
2020/12/12 02:30:28;;;;;;;7.78;1.25;;;;;;;6.58;100.00;97478.97;5051597;28;20052;-75
2020/12/12 02:33:31;;;;;;;11.52;2.42;;;;;;;6.58;100.00;97478.97;5051616;28;20143;-74
2020/12/12 02:36:38;;;;;;;7.82;2.15;;;;;;;6.57;100.00;97474.69;5051490;28;20098;-74
2020/12/12 02:39:41;;;;;;;5.43;1.02;;;;;;;6.57;100.00;97480.22;5050212;28;20138;-74
2020/12/12 02:42:44;;;;;;;5.40;2.17;;;;;;;6.56;100.00;97481.50;5051456;28;20064;-75
2020/12/12 02:45:48;;;;;;;3.20;0.95;;;;;;;6.56;100.00;97492.56;5051570;28;20048;-75
2020/12/12 02:48:51;;;;;;;8.07;1.38;;;;;;;6.57;100.00;97496.81;5051551;28;20125;-75
2020/12/12 02:51:54;;;;;;;7.32;2.03;;;;;;;6.57;100.00;97494.06;5051436;28;20059;-74
2020/12/12 02:54:57;;;;;;;14.20;0.98;;;;;;;6.57;100.00;97494.06;5051467;28;20087;-75
2020/12/12 02:58:00;;;;;;;0.63;0.35;;;;;;;6.56;100.00;97501.59;5051467;28;20051;-75
2020/12/12 03:01:03;;;;;;;5.18;1.27;;;;;;;6.57;100.00;97507.88;5051266;28;20126;-74
2020/12/12 03:04:06;;;;;;;1.17;0.70;;;;;;;6.57;100.00;97505.13;5051163;28;20404;-74
2020/12/12 03:07:09;;;;;;;3.70;1.27;;;;;;;6.55;100.00;97510.41;5051228;28;20048;-75
2020/12/12 03:10:12;;;;;;;5.30;1.13;;;;;;;6.56;100.00;97522.97;5050998;28;20167;-75
2020/12/12 03:13:15;;;;;;;5.45;1.35;;;;;;;6.57;100.00;97527.22;5050633;28;20052;-75
2020/12/12 03:16:17;;;;;;;4.93;1.38;;;;;;;6.57;100.00;97532.75;5051464;28;20075;-76
2020/12/12 03:19:20;;;;;;;1.92;0.63;;;;;;;6.55;100.00;97529.75;5050894;28;20511;-75
2020/12/12 03:22:23;;;;;;;3.40;0.60;;;;;;;6.57;100.00;97538.28;5050966;28;20191;-75
2020/12/12 03:25:26;;;;;;;6.32;0.93;;;;;;;6.56;100.00;97542.34;5050921;28;20110;-75
2020/12/12 03:28:28;;;;;;;3.72;1.27;;;;;;;6.57;100.00;97547.34;5051231;28;20052;-75
2020/12/12 03:31:31;;;;;;;2.95;0.95;;;;;;;6.56;100.00;97550.63;5050959;28;20041;-75
2020/12/12 03:34:35;;;;;;;6.40;1.48;;;;;;;6.58;100.00;97550.88;5051294;28;20059;-75
2020/12/12 03:37:38;;;;;;;6.20;0.93;;;;;;;6.58;100.00;97556.41;5051133;28;20134;-75
2020/12/12 03:40:41;;;;;;;0.30;0.10;;;;;;;6.57;100.00;97560.41;5050799;28;20098;-75
2020/12/12 03:43:44;;;;;;;4.60;2.05;;;;;;;6.56;100.00;97558.91;5051040;28;20441;-75
2020/12/12 03:46:47;;;;;;;13.32;0.88;;;;;;;6.58;100.00;97578.53;5050783;28;20676;-75
2020/12/12 03:49:50;;;;;;;6.15;1.13;;;;;;;6.56;100.00;97559.66;5051217;28;20488;-75
2020/12/12 03:52:53;;;;;;;4.13;0.65;;;;;;;6.56;100.00;97565.19;5054559;28;20094;-74
2020/12/12 03:55:56;;;;;;;1.17;1.00;;;;;;;6.55;100.00;97576.75;5054412;28;20052;-75
2020/12/12 03:58:58;;;;;;;2.22;1.17;;;;;;;6.55;100.00;97574.00;5054388;28;20504;-75
2020/12/12 04:02:01;;;;;;;1.27;0.63;;;;;;;6.53;100.00;97573.75;5054298;28;20044;-75
2020/12/12 04:05:04;;;;;;;0.95;0.40;;;;;;;6.55;100.00;97585.06;5054268;28;20151;-75
2020/12/12 04:08:07;;;;;;;6.07;0.63;;;;;;;6.53;100.00;97576.50;5054133;28;20180;-75
2020/12/12 04:11:10;;;;;;;3.97;1.13;;;;;;;6.55;100.00;97585.81;5054198;28;20099;-75
2020/12/12 04:14:13;;;;;;;7.63;2.20;;;;;;;6.55;100.00;97585.06;5053949;28;20044;-75
2020/12/12 04:17:15;;;;;;;6.20;1.00;;;;;;;6.55;100.00;97601.63;5041231;28;20048;-75
2020/12/12 04:20:18;;;;;;;15.40;0.80;;;;;;;6.56;100.00;97600.41;5054042;28;20136;-74
2020/12/12 04:23:21;;;;;;;3.53;1.48;;;;;;;6.56;100.00;97597.63;5054005;28;20048;-75
2020/12/12 04:26:24;;;;;;;4.78;0.90;;;;;;;6.57;100.00;97601.88;5053876;28;20044;-75
2020/12/12 04:29:27;;;;;;;3.33;1.00;;;;;;;6.58;100.00;97611.72;5054068;28;20599;-75
2020/12/12 04:32:30;;;;;;;2.65;0.73;;;;;;;6.58;100.00;97614.47;5053764;28;20044;-75
2020/12/12 04:35:33;;;;;;;1.08;0.50;;;;;;;6.59;100.00;97621.50;5053870;28;20528;-74
2020/12/12 04:38:36;;;;;;;7.35;1.25;;;;;;;6.61;100.00;97618.97;5053550;28;20044;-75
2020/12/12 04:41:42;;;;;;;0.63;0.38;;;;;;;6.60;100.00;97625.78;5050513;28;20429;-75
2020/12/12 04:44:45;;;;;;;1.35;1.23;;;;;;;6.60;100.00;97631.31;5049761;28;20052;-75
2020/12/12 04:47:50;;;;;;;6.07;0.65;;;;;;;6.61;100.00;97633.56;5052940;28;20424;-74
2020/12/12 04:50:54;;;;;;;4.15;1.23;;;;;;;6.63;100.00;97635.81;5051888;28;20503;-75
2020/12/12 04:53:57;;;;;;;4.72;0.80;;;;;;;6.62;100.00;97635.09;5052501;28;20044;-76
2020/12/12 04:57:05;;;;;;;3.47;1.05;;;;;;;6.62;100.00;97646.16;5050218;28;20460;-75
2020/12/12 05:00:13;;;;;;;1.73;0.55;;;;;;;6.63;100.00;97641.34;5052154;28;20504;-76
2020/12/12 05:03:18;;;;;;;0.93;0.50;;;;;;;6.66;100.00;97651.41;5052756;28;20107;-76
2020/12/12 05:06:20;;;;;;;2.75;0.55;;;;;;;6.66;100.00;97654.94;5053848;28;20114;-76
2020/12/12 05:09:26;;;;;;;5.82;0.75;;;;;;;6.68;100.00;97654.44;5053141;28;20098;-76
2020/12/12 05:12:29;;;;;;;3.05;0.50;;;;;;;6.68;100.00;97659.97;5053189;28;20124;-75
2020/12/12 05:15:32;;;;;;;4.88;0.98;;;;;;;6.67;100.00;97664.75;5052800;28;20051;-77
2020/12/12 05:18:35;;;;;;;0.55;0.45;;;;;;;6.67;100.00;97669.53;5052607;28;20049;-76
2020/12/12 05:21:52;;;;;;;0.77;0.30;;;;;;;6.66;100.00;97662.47;5051258;28;20083;-78
2020/12/12 05:24:56;;;;;;;0.95;0.52;;;;;;;6.67;100.00;97669.53;5051558;28;20052;-76
2020/12/12 05:27:59;;;;;;;5.72;0.45;;;;;;;6.67;100.00;97661.25;5051838;28;20048;-80
2020/12/12 05:31:02;;;;;;;4.95;1.33;;;;;;;6.66;100.00;97673.53;5051493;28;20394;-80
2020/12/12 05:34:14;;;;;;;2.50;0.57;;;;;;;6.66;100.00;97673.53;5040200;28;20118;-80
2020/12/12 05:37:17;;;;;;;2.97;0.65;;;;;;;6.65;100.00;97669.25;5052822;28;20145;-80
2020/12/12 05:40:20;;;;;;;2.17;0.57;;;;;;;6.65;100.00;97683.09;5052765;28;20056;-79
2020/12/12 05:43:33;;;;;;;1.02;0.77;;;;;;;6.64;100.00;97681.59;5052412;28;20048;-77
2020/12/12 05:46:38;;;;;;;2.40;0.73;;;;;;;6.62;100.00;97689.63;5040186;28;20205;-77
2020/12/12 05:49:47;;;;;;;1.83;0.70;;;;;;;6.61;100.00;97693.66;5052375;28;20068;-76
2020/12/12 05:52:55;;;;;;;5.20;1.50;;;;;;;6.61;100.00;97699.19;5052445;28;20515;-77
2020/12/12 05:55:58;;;;;;;3.22;0.52;;;;;;;6.60;100.00;97692.16;5051961;28;20141;-78
2020/12/12 05:59:01;;;;;;;3.88;0.88;;;;;;;6.59;100.00;97696.16;5052179;28;20705;-77
2020/12/12 06:02:06;;;;;;;2.03;0.20;;;;;;;6.60;100.00;97700.44;5052226;28;20124;-78
2020/12/12 06:05:19;;;;;;;5.82;0.90;;;;;;;6.61;100.00;97704.72;5052462;28;20187;-78
2020/12/12 06:08:33;;;;;;;8.60;1.05;;;;;;;6.62;100.00;97711.75;5052527;28;20048;-78
2020/12/12 06:11:41;;;;;;;6.50;0.63;;;;;;;6.59;100.00;97713.50;5051810;28;20087;-77
2020/12/12 06:14:46;;;;;;;1.65;0.85;;;;;;;6.61;100.00;97726.81;5051762;28;20105;-77
2020/12/12 06:18:04;;;;;;;4.72;0.82;;;;;;;6.61;100.00;97721.28;5051810;28;20103;-78
2020/12/12 06:21:08;;;;;;;8.27;0.90;;;;;;;6.61;100.00;97726.81;5052006;28;20047;-78
2020/12/12 06:24:16;;;;;;;1.13;0.63;;;;;;;6.62;100.00;97742.94;5051665;28;20110;-81
2020/12/12 06:27:19;;;;;;;4.07;0.55;;;;;;;6.61;100.00;97732.34;5051448;28;20492;-81
2020/12/12 06:30:25;;;;;;;4.32;1.25;;;;;;;6.60;100.00;97742.69;5051594;28;20067;-80
2020/12/12 06:33:28;;;;;;;1.80;0.80;;;;;;;6.61;100.00;97737.88;5039710;28;20401;-80
2020/12/12 06:36:36;;;;;;;0.90;0.45;;;;;;;6.61;100.00;97748.94;5051613;28;20095;-80
2020/12/12 06:39:45;;;;;;;3.67;0.38;;;;;;;6.62;100.00;97750.47;5051785;28;20051;-80
2020/12/12 06:42:48;;;;;;;1.13;0.80;;;;;;;6.64;100.00;97759.03;5051618;28;20048;-80
2020/12/12 06:45:51;;;;;;;1.27;0.50;;;;;;;6.64;100.00;97759.03;5051432;28;20060;-80
2020/12/12 06:49:08;;;;;;;2.00;0.63;;;;;;;6.65;100.00;97760.53;5051526;28;20462;-80
2020/12/12 06:52:27;;;;;;;0.17;0.13;;;;;;;6.65;100.00;97766.06;5051284;28;20044;-79
2020/12/12 06:55:30;;;;;;;2.22;0.60;;;;;;;6.66;100.00;97773.09;5051118;28;20451;-79
2020/12/12 06:58:34;;;;;;;0.20;0.20;;;;;;;6.67;100.00;97774.63;5038832;28;20057;-80
2020/12/12 07:01:36;;;;;;;0.50;0.40;;;;;;;6.67;100.00;97785.69;5050998;28;20106;-79
2020/12/12 07:04:39;;;;;;;0.25;0.15;;;;;;;6.68;100.00;97793.47;5051288;28;20087;-80
2020/12/12 07:07:43;;;;;;;0.63;0.10;;;;;;;6.67;100.00;97796.75;5051212;28;20052;-80
2020/12/12 07:10:46;;;;;;;2.08;0.30;;;;;;;6.65;100.00;97794.47;5051216;28;20508;-79
2020/12/12 07:13:49;;;;;;;1.08;0.10;;;;;;;6.63;100.00;97801.75;5051268;28;20472;-79
2020/12/12 07:16:54;;;;;;;0.10;0.10;;;;;;;6.61;100.00;97809.78;5050767;28;20077;-80
2020/12/12 07:19:58;;;;;;;0.43;0.10;;;;;;;6.57;100.00;97821.09;5037990;28;20060;-79
2020/12/12 07:23:03;;;;;;;0.10;0.10;;;;;;;6.54;100.00;97821.34;5038551;28;20106;-80
2020/12/12 07:26:06;;;;;;;0.10;0.03;;;;;;;6.53;100.00;97830.88;5051907;28;20086;-79
2020/12/12 07:29:09;;;;;;;0.30;0.30;;;;;;;6.53;100.00;97842.72;5054481;28;20087;-81
2020/12/12 07:32:12;;;;;;;0.38;0.20;;;;;;;6.52;100.00;97851.50;5054130;28;20486;-80
2020/12/12 07:35:15;;;;;;;0.10;0.00;;;;;;;6.50;100.00;97854.00;5054272;28;20183;-80
2020/12/12 07:38:18;;;;;;;0.32;0.20;;;;;;;6.50;100.00;97857.53;5054113;28;20051;-77
2020/12/12 07:41:21;;;;;;;0.20;0.00;;;;;;;6.47;100.00;97866.81;5054228;28;20543;-78
2020/12/12 07:44:28;;;;;;;0.20;0.20;;;;;;;6.46;100.00;97867.28;5054958;28;20091;-78
2020/12/12 07:47:31;;;;;;;1.52;0.10;;;;;;;6.44;100.00;97872.56;5054018;28;20179;-78
2020/12/12 07:50:33;;;;;;;0.10;0.10;;;;;;;6.43;100.00;97893.91;5054205;28;20409;-78
2020/12/12 07:53:37;;;;;;;0.10;0.10;;;;;;;6.42;100.00;97892.44;5053938;28;20048;-78
2020/12/12 07:56:51;;;;;;;0.30;0.25;;;;;;;6.40;100.00;97899.69;5054219;28;20072;-78
2020/12/12 08:00:05;;;;;;;0.77;0.10;;;;;;;6.37;100.00;97900.69;5054806;28;20098;-79
2020/12/12 08:03:08;;;;;;;0.22;0.20;;;;;;;6.36;100.00;97910.22;5054563;28;20088;-78
2020/12/12 08:06:11;;;;;;;0.25;0.15;;;;;;;6.33;100.00;97909.22;5055071;28;20098;-78
2020/12/12 08:09:22;;;;;;;0.03;0.00;;;;;;;6.31;100.00;97922.00;5054574;28;20048;-78
2020/12/12 08:12:36;;;;;;;0.35;0.30;;;;;;;6.29;100.00;97924.50;5054288;28;20052;-79
2020/12/12 08:15:45;;;;;;;0.38;0.10;;;;;;;6.27;100.00;97929.78;5060665;28;20055;-78
2020/12/12 08:18:48;;;;;;;0.10;0.10;;;;;;;6.26;100.00;97942.09;5074349;28;20508;-77
2020/12/12 08:22:06;;;;;;;0.10;0.10;;;;;;;6.21;100.00;97948.34;5074444;28;20135;-78
2020/12/12 08:25:10;;;;;;;1.58;0.50;;;;;;;6.18;100.00;97957.59;5072713;28;20050;-78
2020/12/12 08:28:15;;;;;;;0.93;0.40;;;;;;;6.13;100.00;97959.84;5055357;28;20052;-77
2020/12/12 08:31:20;;;;;;;1.00;0.35;;;;;;;6.13;100.00;97970.13;5054148;28;20103;-78
2020/12/12 08:34:23;;;;;;;0.10;0.00;;;;;;;6.07;100.00;97972.84;5051266;28;20044;-77
2020/12/12 08:37:25;;;;;;;0.20;0.10;;;;;;;6.05;100.00;97980.88;5052006;28;20083;-77
2020/12/12 08:40:31;;;;;;;0.15;0.10;;;;;;;6.01;100.00;97993.41;5052304;28;20102;-77
2020/12/12 08:43:37;;;;;;;0.28;0.20;;;;;;;5.99;100.00;97988.38;5052859;28;20857;-78
2020/12/12 08:46:51;;;;;;;0.10;0.10;;;;;;;5.98;100.00;98003.41;5050938;28;20096;-77
2020/12/12 08:49:55;;;;;;;0.68;0.20;;;;;;;5.99;100.00;98002.19;5053095;28;20063;-77
2020/12/12 08:53:19;;;;;;;2.97;0.93;;;;;;;5.99;100.00;98013.25;5044345;28;20063;-79
2020/12/12 08:56:22;;;;;;;2.08;0.30;;;;;;;6.00;100.00;98023.03;5051061;28;20048;-80
2020/12/12 08:59:24;;;;;;;5.15;1.13;;;;;;;6.00;100.00;98034.09;5051694;28;20044;-79
2020/12/12 09:02:28;;;;;;;5.05;0.77;;;;;;;6.02;100.00;98044.66;5033805;28;20092;-80
2020/12/12 09:05:35;;;;;;;0.40;0.20;;;;;;;6.00;100.00;98045.13;5033825;28;20052;-80
2020/12/12 09:08:38;;;;;;;2.53;0.22;;;;;;;6.00;100.00;98053.41;5033213;28;20048;-79
2020/12/12 09:11:45;;;;;;;3.40;0.40;;;;;;;6.00;100.00;98056.19;5020868;28;20099;-79
2020/12/12 09:14:49;;;;;;;2.72;0.10;;;;;;;5.99;100.00;98060.22;5046292;28;20094;-80
2020/12/12 09:18:01;;;;;;;0.88;0.38;;;;;;;5.99;100.00;98065.72;5041071;28;20381;-80
2020/12/12 09:21:04;;;;;;;1.27;0.63;;;;;;;5.99;100.00;98071.25;5053510;28;20052;-79
2020/12/12 09:24:07;;;;;;;0.13;0.00;;;;;;;5.97;100.00;98082.03;5053393;28;20052;-80
2020/12/12 09:27:12;;;;;;;1.90;0.60;;;;;;;5.99;100.00;98082.31;5053251;28;20469;-79
2020/12/12 09:30:15;;;;;;;0.45;0.30;;;;;;;5.99;100.00;98092.59;5040764;28;20115;-80
2020/12/12 09:33:18;;;;;;;0.85;0.10;;;;;;;5.96;100.00;98099.84;5053080;28;20095;-79
2020/12/12 09:36:21;;;;;;;0.55;0.20;;;;;;;5.93;100.00;98111.88;5053084;28;20052;-76
2020/12/12 09:39:23;;;;;;;0.10;0.00;;;;;;;5.91;100.00;98114.34;5052602;28;20048;-76
2020/12/12 09:42:26;;;;;;;0.10;0.00;;;;;;;5.91;100.00;98119.16;5052929;28;20056;-78
2020/12/12 09:45:29;;;;;;;0.10;0.00;;;;;;;5.91;100.00;98117.13;5053119;28;20052;-78
2020/12/12 09:48:32;;;;;;;0.10;0.10;;;;;;;5.92;100.00;98126.94;5052471;28;20056;-78
2020/12/12 09:51:35;;;;;;;0.10;0.10;;;;;;;5.93;100.00;98133.97;5040294;28;20421;-79
2020/12/12 09:54:38;;;;;;;0.10;0.10;;;;;;;5.99;100.00;98134.81;5052511;28;20405;-79
2020/12/12 09:57:41;;;;;;;0.10;0.00;;;;;;;6.01;100.00;98132.31;5052501;28;20047;-78
2020/12/12 10:00:44;;;;;;;0.10;0.10;;;;;;;6.05;100.00;98138.38;5052335;28;20626;-79
2020/12/12 10:03:47;;;;;;;0.60;0.60;;;;;;;6.12;100.00;98145.47;5052506;28;20126;-79
2020/12/12 10:06:49;;;;;;;0.50;0.30;;;;;;;6.16;100.00;98153.53;5052544;28;20052;-78
2020/12/12 10:09:52;;;;;;;0.10;0.10;;;;;;;6.17;100.00;98157.84;5052385;28;20086;-79
2020/12/12 10:12:56;;;;;;;0.10;0.10;;;;;;;6.19;100.00;98150.59;5012423;28;20133;-79
2020/12/12 10:16:00;;;;;;;1.30;0.57;;;;;;;6.23;100.00;98150.38;5003487;28;20582;-79
2020/12/12 10:19:03;;;;;;;0.30;0.28;;;;;;;6.27;100.00;98162.72;4993306;28;20184;-78
2020/12/12 10:22:05;;;;;;;0.20;0.20;;;;;;;6.29;100.00;98165.00;4993131;28;20551;-79
2020/12/12 10:25:09;;;;;;;8.43;0.75;;;;;;;6.30;100.00;98167.28;4992959;28;20100;-80
2020/12/12 10:28:12;;;;;;;0.10;0.10;;;;;;;6.32;100.00;98172.31;4992839;28;20218;-79
2020/12/12 10:31:17;;;;;;;1.38;0.22;;;;;;;6.32;100.00;98175.09;4992907;28;20049;-78
2020/12/12 10:34:20;;;;;;;3.30;0.50;;;;;;;6.33;100.00;98174.59;4992605;28;20454;-77
2020/12/12 10:37:23;;;;;;;1.85;0.10;;;;;;;6.37;100.00;98179.88;4992831;28;20422;-78
2020/12/12 10:40:39;;;;;;;1.85;0.75;;;;;;;6.36;100.00;98183.91;4992450;28;20053;-80
2020/12/12 10:43:42;;;;;;;0.68;0.10;;;;;;;6.30;100.00;98188.63;4992573;28;20065;-79
2020/12/12 10:46:44;;;;;;;0.82;0.50;;;;;;;6.29;100.00;98187.09;4992412;28;20594;-80
2020/12/12 10:49:47;;;;;;;0.10;0.10;;;;;;;6.29;100.00;98193.41;4992761;28;20112;-79
2020/12/12 10:52:51;;;;;;;1.40;0.10;;;;;;;6.34;100.00;98200.22;4992479;28;20479;-79
2020/12/12 10:55:54;;;;;;;3.10;0.75;;;;;;;6.36;100.00;98198.50;4992561;28;20061;-80
2020/12/12 10:58:57;;;;;;;1.10;0.32;;;;;;;6.40;100.00;98198.28;4992159;28;20109;-80
2020/12/12 11:02:00;;;;;;;7.18;1.83;;;;;;;6.42;100.00;98209.59;4994942;28;20108;-80
2020/12/12 11:05:05;;;;;;;0.20;0.10;;;;;;;6.38;100.00;98209.06;4996582;28;20065;-80
2020/12/12 11:08:07;;;;;;;3.28;0.75;;;;;;;6.38;100.00;98211.84;4997807;28;20096;-79
2020/12/12 11:11:10;;;;;;;1.90;0.70;;;;;;;6.38;100.00;98209.84;5013570;28;20053;-80
2020/12/12 11:14:14;;;;;;;9.50;0.93;;;;;;;6.41;100.00;98210.88;5044841;28;20166;-79
2020/12/12 11:17:16;;;;;;;1.38;0.50;;;;;;;6.44;100.00;98209.88;5055240;28;20577;-79
2020/12/12 11:20:19;;;;;;;2.13;0.95;;;;;;;6.48;100.00;98232.53;5055778;28;20520;-79
2020/12/12 11:23:22;;;;;;;3.30;0.52;;;;;;;6.48;100.00;98227.00;5043220;28;20044;-79
2020/12/12 11:26:26;;;;;;;12.88;0.63;;;;;;;6.41;100.00;98227.47;5055509;28;20052;-77
2020/12/12 11:29:29;;;;;;;2.85;0.63;;;;;;;6.34;100.00;98245.22;5055554;28;20047;-77
2020/12/12 11:32:32;;;;;;;4.70;1.75;;;;;;;6.29;100.00;98237.63;5055334;28;20103;-80
2020/12/12 11:35:46;;;;;;;1.25;0.20;;;;;;;6.23;100.00;98244.34;5055613;28;20071;-79
2020/12/12 11:45:23;;;;;;;20.92;1.55;;;;;;;6.15;100.00;98251.53;5055181;28;20148;-80
2020/12/12 11:48:26;;;;;;;5.10;1.05;;;;;;;6.14;100.00;98259.06;5054707;28;20421;-78
2020/12/12 11:51:29;;;;;;;3.92;0.85;;;;;;;6.11;100.00;98258.03;5055042;28;20068;-79
2020/12/12 11:54:32;;;;;;;10.05;0.85;;;;;;;6.07;100.00;98253.94;5055080;28;20420;-80
2020/12/12 11:57:35;;;;;;;8.18;0.93;;;;;;;6.04;100.00;98265.97;5054968;28;20064;-78
2020/12/12 12:00:43;;;;;;;5.03;1.35;;;;;;;6.02;100.00;98263.69;5054676;28;20060;-78
2020/12/12 12:03:46;;;;;;;0.95;0.47;;;;;;;6.02;100.00;98274.00;5054614;28;20076;-77
2020/12/12 12:06:50;;;;;;;0.30;0.10;;;;;;;6.01;100.00;98272.47;5054758;28;20100;-78
2020/12/12 12:10:05;;;;;;;0.88;0.60;;;;;;;5.99;100.00;98281.25;5054773;28;20051;-77
2020/12/12 12:13:09;;;;;;;2.63;0.85;;;;;;;5.94;100.00;98276.41;5054305;28;20047;-79
2020/12/12 12:16:19;;;;;;;6.63;1.08;;;;;;;5.94;100.00;98284.69;5042342;28;20102;-79
2020/12/12 12:19:22;;;;;;;2.30;0.40;;;;;;;5.94;100.00;98283.91;5055072;28;20106;-78
2020/12/12 12:22:25;;;;;;;7.07;0.60;;;;;;;5.94;100.00;98284.69;5042079;28;20098;-80
2020/12/12 12:25:28;;;;;;;2.25;0.63;;;;;;;5.98;100.00;98288.00;5054533;28;20051;-80
2020/12/12 12:28:31;;;;;;;3.03;0.65;;;;;;;6.04;100.00;98294.34;5054496;28;20048;-80
2020/12/12 12:31:38;;;;;;;1.05;0.43;;;;;;;6.08;100.00;98299.69;5042008;28;20055;-79
2020/12/12 12:34:41;;;;;;;0.40;0.32;;;;;;;6.14;100.00;98300.50;5054285;28;20481;-80
2020/12/12 12:37:44;;;;;;;1.75;0.30;;;;;;;6.15;100.00;98295.75;5054192;28;20097;-80
2020/12/12 12:40:46;;;;;;;1.48;0.40;;;;;;;6.15;100.00;98304.03;5054384;28;20060;-80
2020/12/12 12:43:51;;;;;;;2.60;0.75;;;;;;;6.32;100.00;98310.53;5054441;28;20099;-81
2020/12/12 12:46:54;;;;;;;0.47;0.47;;;;;;;6.46;100.00;98310.47;5041854;28;20131;-80
2020/12/12 12:49:57;;;;;;;1.42;0.43;;;;;;;6.46;100.00;98306.94;5041577;28;20094;-79
2020/12/12 12:53:06;;;;;;;4.00;0.35;;;;;;;6.41;100.00;98313.16;5053666;28;20048;-80
2020/12/12 12:56:11;;;;;;;0.73;0.57;;;;;;;6.39;100.00;98318.41;5053620;28;20048;-80
2020/12/12 12:59:14;;;;;;;0.30;0.30;;;;;;;6.39;100.00;98321.19;5053961;28;20048;-80
2020/12/12 13:02:17;;;;;;;4.28;1.00;;;;;;;6.35;100.00;98323.38;5041109;28;20048;-78
2020/12/12 13:05:22;;;;;;;7.47;0.63;;;;;;;6.31;100.00;98329.13;5053529;28;20131;-80
2020/12/12 13:08:25;;;;;;;0.85;0.38;;;;;;;6.33;100.00;98348.75;5053679;28;20056;-80
2020/12/12 13:11:28;;;;;;;1.60;0.55;;;;;;;6.27;100.00;98344.41;5053362;28;20084;-80
2020/12/12 13:14:31;;;;;;;1.65;0.40;;;;;;;6.22;100.00;98345.84;5040986;28;20048;-79
2020/12/12 13:17:34;;;;;;;5.88;0.60;;;;;;;6.18;100.00;98352.81;5039053;28;20065;-80
2020/12/12 13:23:52;;;;;;;0.85;0.38;;;;;;;6.18;100.00;98355.56;5050424;28;20136;-79
2020/12/12 13:26:59;;;;;;;0.40;0.32;;;;;;;6.26;100.00;98360.22;5051573;28;20405;-79
2020/12/12 13:30:19;;;;;;;0.28;0.20;;;;;;;6.41;100.00;98376.75;5051339;28;20048;-81
2020/12/12 13:33:22;;;;;;;5.05;0.95;;;;;;;6.56;100.00;98367.13;5050969;28;20043;-80
2020/12/12 13:36:26;;;;;;;0.57;0.57;;;;;;;6.49;100.00;98361.28;5038927;28;20052;-80
2020/12/12 13:39:29;;;;;;;4.18;0.65;;;;;;;6.40;100.00;98369.69;5049117;28;20076;-80
2020/12/12 13:42:35;;;;;;;0.45;0.45;;;;;;;6.34;100.00;98368.88;5050539;28;20076;-80
2020/12/12 13:45:38;;;;;;;0.20;0.20;;;;;;;6.28;100.00;98373.56;5048715;28;20052;-80
2020/12/12 13:48:41;;;;;;;0.20;0.20;;;;;;;6.21;100.00;98385.03;5048804;28;20135;-80
2020/12/12 13:51:45;;;;;;;0.20;0.20;;;;;;;6.17;100.00;98387.22;5052043;28;20125;-80
2020/12/12 13:54:48;;;;;;;1.60;0.60;;;;;;;6.21;100.00;98396.09;5052391;28;20098;-79
2020/12/12 13:57:51;;;;;;;0.73;0.30;;;;;;;6.24;100.00;98395.88;5049664;28;20052;-78
2020/12/12 14:00:56;;;;;;;0.40;0.10;;;;;;;6.22;100.00;98414.16;5052860;28;20047;-77
2020/12/12 14:03:59;;;;;;;0.15;0.15;;;;;;;6.25;100.00;98419.53;5052620;28;20186;-78
2020/12/12 14:07:05;;;;;;;1.10;1.00;;;;;;;6.29;100.00;98424.84;5040508;28;20099;-78
2020/12/12 14:23:17;;;;;;;;;;;;;;;6.18;100.00;98446.78;5053169;28;19924;-77
2020/12/12 14:26:20;;;;;;;0.35;0.20;;;;;;;6.07;100.00;98442.63;5052311;28;19924;-77
2020/12/12 14:29:23;;;;;;;4.13;0.80;;;;;;;6.02;100.00;98446.06;5052012;28;20098;-78
2020/12/12 14:32:26;;;;;;;1.20;0.68;;;;;;;5.99;100.00;98457.31;5052194;28;20079;-77
2020/12/12 14:35:29;;;;;;;0.40;0.30;;;;;;;5.95;100.00;98468.56;5052207;28;20079;-78
2020/12/12 14:38:32;;;;;;;14.75;1.15;;;;;;;5.96;100.00;98463.78;5051922;28;20087;-78
2020/12/12 14:41:38;;;;;;;1.02;0.77;;;;;;;5.95;100.00;98463.03;5051797;28;20134;-78
2020/12/12 14:44:41;;;;;;;4.75;0.68;;;;;;;5.96;100.00;98466.53;5051964;28;20086;-78
2020/12/12 14:47:43;;;;;;;3.00;1.15;;;;;;;5.94;100.00;98467.03;5051868;28;20576;-77
2020/12/12 14:50:46;;;;;;;0.45;0.35;;;;;;;5.95;100.00;98463.03;5051285;28;20167;-77